createdAt,value
2023-04-07T00:01:30.644Z,11.50
2023-04-07T00:03:58.775Z,11.73
2023-04-07T00:06:28.817Z,12.43
2023-04-07T00:08:56.632Z,12.13
2023-04-07T00:11:25.627Z,12.47
2023-04-07T00:13:53.579Z,12.20
2023-04-07T00:16:23.107Z,12.20
2023-04-07T00:18:51.034Z,11.80
2023-04-07T00:21:18.855Z,12.47
2023-04-07T00:23:47.003Z,12.43
2023-04-07T00:26:14.988Z,11.90
2023-04-07T00:28:45.048Z,11.37
2023-04-07T00:31:12.938Z,11.50
2023-04-07T00:33:42.223Z,11.20
2023-04-07T00:36:10.226Z,10.20
2023-04-07T00:38:38.970Z,10.30
2023-04-07T00:41:09.903Z,11.47
2023-04-07T00:43:37.931Z,10.57
2023-04-07T00:46:06.049Z,11.17
2023-04-07T00:48:34.432Z,10.40
2023-04-07T00:51:03.671Z,12.60
2023-04-07T00:53:31.633Z,11.07
2023-04-07T00:55:59.769Z,10.47
2023-04-07T00:58:28.074Z,9.70
2023-04-07T01:01:04.702Z,10.70
2023-04-07T01:03:41.112Z,9.67
2023-04-07T01:06:14.472Z,9.90
2023-04-07T01:08:49.903Z,10.23
2023-04-07T01:11:22.730Z,9.47
2023-04-07T01:13:52.501Z,10.50
2023-04-07T01:16:48.245Z,10.30
2023-04-07T01:19:33.881Z,10.27
2023-04-07T01:22:05.536Z,9.97
2023-04-07T01:24:47.366Z,10.00
2023-04-07T01:27:23.155Z,10.47
2023-04-07T01:29:53.517Z,9.57
2023-04-07T01:32:24.256Z,10.03
2023-04-07T01:34:54.093Z,9.77
2023-04-07T01:37:23.178Z,9.63
2023-04-07T01:39:51.219Z,9.73
2023-04-07T01:42:20.575Z,9.80
2023-04-07T01:44:49.285Z,8.13
2023-04-07T01:47:19.140Z,8.90
2023-04-07T01:49:48.378Z,8.77
2023-04-07T01:52:17.854Z,9.40
2023-04-07T01:54:46.679Z,9.20
2023-04-07T01:57:14.581Z,8.90
2023-04-07T01:59:43.149Z,9.17
2023-04-07T02:02:11.715Z,8.37
2023-04-07T02:04:48.380Z,7.70
2023-04-07T02:07:21.056Z,8.80
2023-04-07T02:09:52.816Z,7.97
2023-04-07T02:12:21.281Z,8.60
2023-04-07T02:15:11.258Z,8.67
2023-04-07T02:17:41.723Z,8.47
2023-04-07T02:20:13.168Z,8.30
2023-04-07T02:22:41.362Z,7.97
2023-04-07T02:25:22.704Z,9.30
2023-04-07T02:27:50.694Z,10.00
2023-04-07T02:30:20.066Z,9.60
2023-04-07T02:32:48.044Z,8.70
2023-04-07T02:35:18.040Z,9.10
2023-04-07T02:37:47.344Z,8.30
2023-04-07T02:40:15.774Z,8.60
2023-04-07T02:42:43.772Z,8.80
2023-04-07T02:45:12.605Z,8.13
2023-04-07T02:47:40.856Z,8.43
2023-04-07T02:50:09.363Z,8.33
2023-04-07T02:52:38.626Z,7.47
2023-04-07T02:55:12.380Z,8.30
2023-04-07T02:57:40.433Z,7.83
2023-04-07T03:00:16.755Z,8.00
2023-04-07T03:03:11.020Z,8.20
2023-04-07T03:05:42.185Z,7.90
2023-04-07T03:08:13.213Z,7.40
2023-04-07T03:10:41.612Z,7.50
2023-04-07T03:13:10.325Z,8.50
2023-04-07T03:15:38.926Z,8.37
2023-04-07T03:18:08.053Z,8.53
2023-04-07T03:20:36.441Z,8.67
2023-04-07T03:23:10.131Z,8.20
2023-04-07T03:25:39.417Z,8.83
2023-04-07T03:28:07.648Z,8.90
2023-04-07T03:30:39.139Z,8.23
2023-04-07T03:33:07.412Z,8.10
2023-04-07T03:35:35.471Z,8.17
2023-04-07T03:38:03.336Z,9.07
2023-04-07T03:40:33.551Z,8.63
2023-04-07T03:43:02.850Z,9.50
2023-04-07T03:45:31.338Z,8.90
2023-04-07T03:47:59.375Z,9.10
2023-04-07T03:50:27.263Z,9.40
2023-04-07T03:53:09.593Z,8.40
2023-04-07T03:55:38.046Z,9.30
2023-04-07T03:58:14.855Z,9.03
2023-04-07T04:00:43.940Z,8.50
2023-04-07T04:03:13.423Z,8.37
2023-04-07T04:05:53.747Z,8.57
2023-04-07T04:08:28.214Z,7.87
2023-04-07T04:10:56.200Z,8.40
2023-04-07T04:13:28.911Z,8.10
2023-04-07T04:15:59.791Z,8.40
2023-04-07T04:18:30.662Z,8.63
2023-04-07T04:20:59.053Z,8.40
2023-04-07T04:23:27.471Z,8.80
2023-04-07T04:25:56.954Z,9.37
2023-04-07T04:28:24.947Z,8.80
2023-04-07T04:30:54.275Z,8.83
2023-04-07T04:33:22.870Z,8.37
2023-04-07T04:35:55.440Z,8.70
2023-04-07T04:38:26.836Z,9.40
2023-04-07T04:41:08.689Z,9.07
2023-04-07T04:43:36.602Z,9.00
2023-04-07T04:46:07.460Z,9.50
2023-04-07T04:48:39.829Z,8.63
2023-04-07T04:51:08.658Z,10.20
2023-04-07T04:53:38.376Z,9.70
2023-04-07T04:56:08.558Z,11.30
2023-04-07T04:58:46.326Z,11.97
2023-04-07T05:01:22.995Z,12.63
2023-04-07T05:04:01.830Z,11.70
2023-04-07T05:06:31.054Z,11.27
2023-04-07T05:09:04.092Z,10.90
2023-04-07T05:11:41.971Z,11.60
2023-04-07T05:14:10.747Z,11.10
2023-04-07T05:16:45.607Z,11.80
2023-04-07T05:19:19.312Z,10.77
2023-04-07T05:21:47.443Z,11.83
2023-04-07T05:24:15.616Z,10.73
2023-04-07T05:26:45.577Z,10.90
2023-04-07T05:29:13.971Z,12.17
2023-04-07T05:31:41.855Z,12.20
2023-04-07T05:34:15.043Z,12.30
2023-04-07T05:36:49.759Z,12.53
2023-04-07T05:39:19.125Z,12.40
2023-04-07T05:41:47.904Z,13.87
2023-04-07T05:44:16.714Z,12.57
2023-04-07T05:46:45.586Z,13.07
2023-04-07T05:49:20.167Z,11.70
2023-04-07T05:51:56.811Z,13.50
2023-04-07T05:54:25.585Z,12.20
2023-04-07T05:56:54.056Z,11.80
2023-04-07T05:59:23.362Z,12.73
2023-04-07T06:01:52.600Z,11.23
2023-04-07T06:04:22.823Z,10.77
2023-04-07T06:06:55.068Z,11.10
2023-04-07T06:09:22.955Z,11.57
2023-04-07T06:11:53.587Z,11.40
2023-04-07T06:14:21.956Z,11.47
2023-04-07T06:16:50.685Z,10.63
2023-04-07T06:19:19.728Z,10.67
2023-04-07T06:21:49.666Z,10.77
2023-04-07T06:24:17.645Z,10.40
2023-04-07T06:26:46.404Z,10.83
2023-04-07T06:29:14.718Z,10.17
2023-04-07T06:31:42.827Z,10.37
2023-04-07T06:34:10.719Z,9.80
2023-04-07T06:36:39.331Z,10.37
2023-04-07T06:39:08.564Z,10.37
2023-04-07T06:41:36.706Z,9.93
2023-04-07T06:44:04.549Z,9.20
2023-04-07T06:46:32.398Z,10.00
2023-04-07T06:49:00.219Z,10.17
2023-04-07T06:51:28.087Z,9.60
2023-04-07T06:53:56.156Z,10.53
2023-04-07T06:58:54.298Z,9.70
2023-04-07T07:01:22.227Z,9.20
2023-04-07T07:03:50.350Z,8.63
2023-04-07T07:06:18.547Z,9.90
2023-04-07T07:08:46.771Z,8.50
2023-04-07T07:11:14.858Z,9.70
2023-04-07T07:13:45.063Z,9.40
2023-04-07T07:16:13.803Z,9.10
2023-04-07T07:18:41.769Z,10.20
2023-04-07T07:21:10.360Z,9.80
2023-04-07T07:23:38.245Z,9.90
2023-04-07T07:26:06.292Z,9.13
2023-04-07T07:28:34.280Z,8.93
2023-04-07T07:31:10.216Z,9.57
2023-04-07T07:33:40.487Z,9.90
2023-04-07T07:36:08.965Z,10.67
2023-04-07T07:38:37.824Z,10.10
2023-04-07T07:41:07.572Z,9.50
2023-04-07T07:43:35.533Z,10.77
2023-04-07T07:46:04.868Z,10.80
2023-04-07T07:48:32.895Z,10.70
2023-04-07T07:51:00.951Z,9.87
2023-04-07T07:53:28.926Z,10.93
2023-04-07T07:55:57.019Z,9.63
2023-04-07T07:58:24.884Z,11.30
2023-04-07T08:00:52.706Z,10.30
2023-04-07T08:03:22.676Z,10.67
2023-04-07T08:05:50.949Z,10.50
2023-04-07T08:08:18.826Z,10.47
2023-04-07T08:10:46.697Z,11.07
2023-04-07T08:13:14.571Z,10.30
2023-04-07T08:15:42.532Z,9.63
2023-04-07T08:18:10.512Z,9.90
2023-04-07T08:20:39.844Z,10.23
2023-04-07T08:23:07.651Z,9.87
2023-04-07T08:25:36.067Z,10.50
2023-04-07T08:28:04.156Z,10.47
2023-04-07T08:30:32.016Z,10.50
2023-04-07T08:32:59.936Z,10.50
2023-04-07T08:35:27.933Z,10.77
2023-04-07T08:37:57.135Z,10.47
2023-04-07T08:40:25.256Z,10.30
2023-04-07T08:42:53.342Z,10.50
2023-04-07T08:45:22.261Z,10.90
2023-04-07T08:47:52.786Z,11.23
2023-04-07T08:50:20.898Z,11.70
2023-04-07T08:52:52.744Z,11.50
2023-04-07T08:55:22.255Z,11.33
2023-04-07T08:57:51.142Z,10.67
2023-04-07T09:00:19.689Z,11.07
2023-04-07T09:02:49.426Z,10.43
2023-04-07T09:05:17.448Z,11.00
2023-04-07T09:07:45.307Z,10.83
2023-04-07T09:10:13.250Z,11.10
2023-04-07T09:12:42.551Z,10.50
2023-04-07T09:15:10.743Z,10.60
2023-04-07T09:17:38.678Z,11.60
2023-04-07T09:20:07.305Z,12.30
2023-04-07T09:22:39.627Z,12.10
2023-04-07T09:25:14.655Z,11.97
2023-04-07T09:27:55.453Z,12.57
2023-04-07T09:30:24.084Z,11.63
2023-04-07T09:32:52.335Z,11.37
2023-04-07T09:35:23.064Z,12.90
2023-04-07T09:38:04.823Z,12.70
2023-04-07T09:40:32.948Z,12.50
2023-04-07T09:43:03.096Z,11.70
2023-04-07T09:45:35.356Z,11.90
2023-04-07T09:48:06.969Z,11.90
2023-04-07T09:50:36.032Z,11.87
2023-04-07T09:53:04.926Z,11.50
2023-04-07T09:55:35.037Z,12.07
2023-04-07T09:58:06.417Z,10.97
2023-04-07T10:00:34.460Z,11.10
2023-04-07T10:03:03.689Z,10.43
2023-04-07T10:05:32.724Z,10.53
2023-04-07T10:08:02.257Z,10.47
2023-04-07T10:10:30.293Z,10.77
2023-04-07T10:12:59.086Z,10.30
2023-04-07T10:15:31.718Z,10.27
2023-04-07T10:17:59.910Z,10.03
2023-04-07T10:20:28.124Z,9.33
2023-04-07T10:22:56.969Z,9.90
2023-04-07T10:25:25.762Z,9.83
2023-04-07T10:27:56.347Z,9.30
2023-04-07T10:30:27.080Z,10.20
2023-04-07T10:32:57.185Z,11.27
2023-04-07T10:35:28.493Z,11.00
2023-04-07T10:38:15.229Z,10.77
2023-04-07T10:40:43.985Z,10.93
2023-04-07T10:43:12.387Z,10.43
2023-04-07T10:46:03.043Z,9.50
2023-04-07T10:48:34.010Z,9.27
2023-04-07T10:51:19.016Z,9.10
2023-04-07T10:54:20.569Z,8.90
2023-04-07T10:57:12.271Z,9.57
2023-04-07T11:00:09.242Z,9.10
2023-04-07T11:02:40.897Z,10.50
2023-04-07T11:05:21.355Z,10.03
2023-04-07T11:07:51.525Z,11.80
2023-04-07T11:10:22.009Z,11.03
2023-04-07T11:13:03.803Z,13.10
2023-04-07T11:15:32.135Z,12.80
2023-04-07T11:18:17.934Z,12.10
2023-04-07T11:20:49.684Z,11.60
2023-04-07T11:23:19.247Z,12.10
2023-04-07T11:25:48.490Z,11.77
2023-04-07T11:28:16.749Z,12.10
2023-04-07T11:30:49.890Z,9.70
2023-04-07T11:33:19.157Z,10.40
2023-04-07T11:35:55.510Z,11.17
2023-04-07T11:38:24.535Z,11.33
2023-04-07T11:40:52.482Z,10.37
2023-04-07T11:43:22.077Z,9.97
2023-04-07T11:46:05.740Z,7.97
2023-04-07T11:48:34.604Z,7.60
2023-04-07T11:51:04.451Z,7.40
2023-04-07T11:53:33.977Z,7.63
2023-04-07T11:56:03.727Z,8.07
2023-04-07T11:58:31.843Z,8.80
2023-04-07T12:01:05.004Z,8.50
2023-04-07T12:03:33.253Z,8.70
2023-04-07T12:06:03.089Z,8.20
2023-04-07T12:08:41.499Z,7.67
2023-04-07T12:11:10.307Z,7.90
2023-04-07T12:13:39.000Z,8.90
2023-04-07T12:16:07.677Z,7.60
2023-04-07T12:18:36.543Z,8.57
2023-04-07T12:21:06.365Z,7.53
2023-04-07T12:23:34.237Z,8.17
2023-04-07T12:26:02.348Z,9.87
2023-04-07T12:28:30.612Z,8.60
2023-04-07T12:30:58.933Z,9.77
2023-04-07T12:33:26.863Z,10.03
2023-04-07T12:35:54.923Z,11.60
2023-04-07T12:38:24.184Z,12.50
2023-04-07T12:40:53.049Z,11.77
2023-04-07T12:43:20.981Z,12.77
2023-04-07T12:45:48.851Z,12.30
2023-04-07T12:48:18.910Z,12.47
2023-04-07T12:50:47.335Z,12.40
2023-04-07T12:53:15.184Z,12.10
2023-04-07T12:55:44.401Z,11.40
2023-04-07T12:58:15.000Z,11.13
2023-04-07T13:00:42.901Z,11.40
2023-04-07T13:03:11.025Z,9.57
2023-04-07T13:05:39.343Z,10.30
2023-04-07T13:08:07.981Z,10.97
2023-04-07T13:10:38.634Z,10.63
2023-04-07T13:13:07.870Z,10.37
2023-04-07T13:15:36.179Z,10.90
2023-04-07T13:18:04.055Z,9.53
2023-04-07T13:20:31.908Z,8.17
2023-04-07T13:23:07.825Z,9.37
2023-04-07T13:25:38.005Z,10.07
2023-04-07T13:28:07.359Z,9.67
2023-04-07T13:30:35.401Z,10.40
2023-04-07T13:33:03.382Z,9.37
2023-04-07T13:35:35.631Z,9.97
2023-04-07T13:38:04.325Z,9.53
2023-04-07T13:40:32.288Z,10.43
2023-04-07T13:43:00.978Z,9.13
2023-04-07T13:45:30.202Z,8.97
2023-04-07T13:47:58.063Z,10.00
2023-04-07T13:50:27.244Z,10.27
2023-04-07T13:52:55.103Z,10.60
2023-04-07T13:55:22.910Z,9.73
2023-04-07T13:57:50.832Z,9.37
2023-04-07T14:00:19.082Z,9.80
2023-04-07T14:02:49.517Z,10.23
2023-04-07T14:05:17.704Z,8.80
2023-04-07T14:07:45.535Z,7.60
2023-04-07T14:10:13.392Z,8.47
2023-04-07T14:12:41.861Z,7.63
2023-04-07T14:15:11.441Z,7.37
2023-04-07T14:17:39.562Z,7.80
2023-04-07T14:20:10.015Z,8.10
2023-04-07T14:22:37.929Z,7.50
2023-04-07T14:25:06.790Z,7.70
2023-04-07T14:27:34.661Z,7.13
2023-04-07T14:30:02.870Z,6.10
2023-04-07T14:32:32.906Z,6.37
2023-04-07T14:35:01.392Z,5.87
2023-04-07T14:37:30.624Z,5.67
2023-04-07T14:40:03.047Z,5.53
2023-04-07T14:42:31.313Z,4.70
2023-04-07T14:45:00.394Z,4.90
2023-04-07T14:47:28.691Z,4.73
2023-04-07T14:49:56.718Z,5.33
2023-04-07T14:52:24.701Z,5.17
2023-04-07T14:54:53.992Z,4.90
2023-04-07T14:57:22.314Z,5.63
2023-04-07T14:59:50.161Z,5.50
2023-04-07T15:02:18.116Z,5.57
2023-04-07T15:04:46.310Z,5.40
2023-04-07T15:07:14.354Z,6.00
2023-04-07T15:09:42.226Z,5.60
2023-04-07T15:12:11.457Z,5.50
2023-04-07T15:14:40.051Z,5.00
2023-04-07T15:17:07.910Z,4.17
2023-04-07T15:19:36.073Z,4.60
2023-04-07T15:22:07.035Z,4.60
2023-04-07T15:24:34.877Z,5.10
2023-04-07T15:27:02.872Z,5.33
2023-04-07T15:29:32.156Z,4.57
2023-04-07T15:32:00.176Z,5.23
2023-04-07T15:34:28.389Z,4.40
2023-04-07T15:36:56.513Z,4.50
2023-04-07T15:39:24.362Z,4.27
2023-04-07T15:41:52.226Z,5.37
2023-04-07T15:44:20.123Z,4.10
2023-04-07T15:46:49.508Z,4.23
2023-04-07T15:49:23.649Z,3.90
2023-04-07T15:51:53.283Z,5.03
2023-04-07T15:54:21.202Z,4.40
2023-04-07T15:56:49.080Z,4.97
2023-04-07T15:59:16.961Z,4.10
2023-04-07T16:01:45.448Z,4.30
2023-04-07T16:04:14.994Z,4.70
2023-04-07T16:06:43.018Z,5.07
2023-04-07T16:09:10.941Z,5.00
2023-04-07T16:11:39.201Z,4.53
2023-04-07T16:14:09.071Z,3.50
2023-04-07T16:16:38.965Z,3.30
2023-04-07T16:19:06.846Z,3.53
2023-04-07T16:21:37.004Z,3.47
2023-04-07T16:24:05.159Z,3.43
2023-04-07T16:26:33.110Z,3.60
2023-04-07T16:29:00.949Z,3.57
2023-04-07T16:31:28.802Z,3.97
2023-04-07T16:33:56.921Z,3.83
2023-04-07T16:36:25.036Z,4.10
2023-04-07T16:38:54.339Z,4.83
2023-04-07T16:41:22.797Z,4.30
2023-04-07T16:43:50.904Z,4.23
2023-04-07T16:46:20.202Z,4.30
2023-04-07T16:48:48.710Z,4.87
2023-04-07T16:51:17.892Z,5.10
2023-04-07T16:53:46.001Z,3.67
2023-04-07T16:56:17.974Z,3.97
2023-04-07T16:58:46.171Z,4.37
2023-04-07T17:03:50.368Z,4.37
2023-04-07T17:06:18.633Z,3.47
2023-04-07T17:08:46.548Z,3.90
2023-04-07T17:11:14.590Z,3.50
2023-04-07T17:13:42.449Z,3.20
2023-04-07T17:16:13.888Z,3.50
2023-04-07T17:18:41.866Z,3.70
2023-04-07T17:21:11.347Z,3.17
2023-04-07T17:23:39.384Z,3.37
2023-04-07T17:26:07.313Z,2.97
2023-04-07T17:28:35.262Z,2.87
2023-04-07T17:31:03.545Z,2.80
2023-04-07T17:33:31.790Z,2.50
2023-04-07T17:36:02.440Z,2.30
2023-04-07T17:38:31.887Z,2.40
2023-04-07T17:41:01.753Z,2.20
2023-04-07T17:43:29.812Z,2.10
2023-04-07T17:45:57.964Z,2.23
2023-04-07T17:48:26.605Z,1.67
2023-04-07T17:50:54.476Z,2.07
2023-04-07T17:53:22.515Z,2.10
2023-04-07T17:55:51.986Z,2.43
2023-04-07T17:58:21.339Z,2.00
2023-04-07T18:00:50.492Z,2.10
2023-04-07T18:03:19.498Z,2.10
2023-04-07T18:05:48.022Z,2.00
2023-04-07T18:08:15.871Z,2.17
2023-04-07T18:10:43.743Z,2.20
2023-04-07T18:13:13.418Z,2.27
2023-04-07T18:16:01.940Z,2.00
2023-04-07T18:18:30.908Z,2.60
2023-04-07T18:21:00.266Z,2.63
2023-04-07T18:23:28.211Z,2.57
2023-04-07T18:25:56.099Z,2.90
2023-04-07T18:28:25.546Z,2.20
2023-04-07T18:31:01.245Z,3.03
2023-04-07T18:33:32.966Z,3.00
2023-04-07T18:36:06.738Z,2.70
2023-04-07T18:38:35.017Z,3.27
2023-04-07T18:41:03.931Z,3.50
2023-04-07T18:43:33.972Z,3.37
2023-04-07T18:46:02.428Z,3.77
2023-04-07T18:48:30.702Z,3.90
2023-04-07T18:50:58.815Z,4.13
2023-04-07T18:53:27.085Z,4.20
2023-04-07T18:55:55.241Z,4.53
2023-04-07T18:58:23.079Z,3.63
2023-04-07T19:00:53.310Z,3.87
2023-04-07T19:03:21.674Z,3.80
2023-04-07T19:05:52.529Z,3.40
2023-04-07T19:08:20.752Z,3.50
2023-04-07T19:10:50.888Z,2.80
2023-04-07T19:13:19.536Z,3.10
2023-04-07T19:15:47.641Z,2.60
2023-04-07T19:18:17.151Z,2.80
2023-04-07T19:20:47.108Z,2.80
2023-04-07T19:23:15.496Z,2.83
2023-04-07T19:25:45.503Z,3.20
2023-04-07T19:28:13.833Z,3.10
2023-04-07T19:30:41.739Z,2.83
2023-04-07T19:33:09.687Z,2.20
2023-04-07T19:35:39.907Z,2.63
2023-04-07T19:38:08.553Z,2.80
2023-04-07T19:40:37.331Z,2.47
2023-04-07T19:43:05.154Z,2.70
2023-04-07T19:45:33.034Z,3.10
2023-04-07T19:48:01.269Z,2.20
2023-04-07T19:50:29.314Z,2.47
2023-04-07T19:53:01.134Z,2.30
2023-04-07T19:55:30.036Z,2.70
2023-04-07T19:57:57.939Z,2.37
2023-04-07T20:00:25.976Z,2.93
2023-04-07T20:02:54.073Z,3.50
2023-04-07T20:05:22.383Z,2.87
2023-04-07T20:07:50.296Z,3.10
2023-04-07T20:10:19.519Z,3.00
2023-04-07T20:12:47.390Z,3.00
2023-04-07T20:15:15.683Z,2.70
2023-04-07T20:17:43.580Z,3.30
2023-04-07T20:20:12.957Z,3.20
2023-04-07T20:22:40.852Z,3.20
2023-04-07T20:25:09.511Z,3.30
2023-04-07T20:27:39.840Z,3.07
2023-04-07T20:30:09.064Z,3.00
2023-04-07T20:32:37.006Z,3.10
2023-04-07T20:35:05.408Z,3.40
2023-04-07T20:37:33.349Z,3.20
2023-04-07T20:40:01.232Z,3.70
2023-04-07T20:42:29.350Z,3.30
2023-04-07T20:45:03.537Z,3.50
2023-04-07T20:47:32.135Z,3.80
2023-04-07T20:50:00.390Z,3.40
2023-04-07T20:52:29.271Z,4.67
2023-04-07T20:54:58.359Z,3.90
2023-04-07T20:57:26.682Z,4.10
2023-04-07T20:59:54.546Z,4.30
2023-04-07T21:02:23.862Z,4.23
2023-04-07T21:04:51.883Z,3.40
2023-04-07T21:07:19.755Z,3.70
2023-04-07T21:09:47.584Z,3.80
2023-04-07T21:12:15.764Z,4.17
2023-04-07T21:14:44.006Z,3.97
2023-04-07T21:17:11.840Z,4.27
2023-04-07T21:19:41.019Z,4.60
2023-04-07T21:22:12.711Z,4.27
2023-04-07T21:24:40.694Z,4.50
2023-04-07T21:27:08.593Z,4.37
2023-04-07T21:29:36.460Z,4.07
2023-04-07T21:32:05.498Z,4.23
2023-04-07T21:34:33.401Z,4.33
2023-04-07T21:37:03.088Z,4.53
2023-04-07T21:39:31.264Z,4.13
2023-04-07T21:41:59.158Z,5.00
2023-04-07T21:44:27.508Z,5.00
2023-04-07T21:46:55.448Z,5.00
2023-04-07T21:49:25.309Z,5.37
2023-04-07T21:51:53.163Z,5.17
2023-04-07T21:54:22.356Z,5.30
2023-04-07T21:56:51.589Z,5.43
2023-04-07T21:59:19.497Z,6.33
2023-04-07T22:01:47.485Z,5.50
2023-04-07T22:04:15.692Z,6.03
2023-04-07T22:06:43.676Z,5.23
2023-04-07T22:09:11.735Z,4.87
2023-04-07T22:11:41.028Z,4.90
2023-04-07T22:14:08.890Z,5.57
2023-04-07T22:16:37.097Z,5.63
2023-04-07T22:19:05.087Z,5.00
2023-04-07T22:21:32.948Z,5.87
2023-04-07T22:24:00.835Z,5.03
2023-04-07T22:26:28.700Z,5.90
2023-04-07T22:28:57.892Z,5.73
2023-04-07T22:31:25.898Z,5.60
2023-04-07T22:33:53.773Z,5.10
2023-04-07T22:36:21.586Z,5.00
2023-04-07T22:38:49.559Z,5.33
2023-04-07T22:41:18.037Z,6.10
2023-04-07T22:43:46.018Z,6.60
2023-04-07T22:46:17.717Z,6.80
2023-04-07T22:48:45.557Z,5.70
2023-04-07T22:51:13.433Z,6.50
2023-04-07T22:53:41.349Z,6.47
2023-04-07T22:56:09.314Z,6.57
2023-04-07T22:58:37.218Z,6.50
2023-04-07T23:01:05.148Z,6.60
2023-04-07T23:03:34.540Z,5.97
2023-04-07T23:06:02.569Z,4.93
2023-04-07T23:08:30.479Z,4.90
2023-04-07T23:10:58.305Z,4.87
2023-04-07T23:13:26.916Z,3.97
2023-04-07T23:15:54.862Z,3.77
2023-04-07T23:18:22.752Z,3.57
2023-04-07T23:20:52.879Z,3.87
2023-04-07T23:23:20.792Z,3.30
2023-04-07T23:25:48.769Z,3.70
2023-04-07T23:28:16.612Z,3.70
2023-04-07T23:30:44.799Z,3.20
2023-04-07T23:33:12.676Z,3.13
2023-04-07T23:35:40.628Z,3.60
2023-04-07T23:38:10.958Z,3.10
2023-04-07T23:40:38.988Z,3.47
2023-04-07T23:43:07.184Z,3.70
2023-04-07T23:45:35.072Z,3.93
2023-04-07T23:48:03.071Z,3.37
2023-04-07T23:50:31.014Z,3.43
2023-04-07T23:52:58.860Z,4.00
2023-04-07T23:55:28.125Z,3.60
2023-04-07T23:57:56.364Z,3.60
